createdAt,value
2023-01-03T00:01:53.384Z,5.98
2023-01-03T00:04:21.457Z,6.07
2023-01-03T00:06:50.363Z,5.82
2023-01-03T00:09:19.584Z,5.91
2023-01-03T00:11:48.166Z,5.95
2023-01-03T00:14:30.052Z,5.82
2023-01-03T00:16:59.089Z,5.99
2023-01-03T00:19:28.002Z,6.24
2023-01-03T00:21:54.685Z,6.03
2023-01-03T00:24:21.767Z,5.77
2023-01-03T00:26:48.484Z,5.85
2023-01-03T00:29:15.842Z,5.80
2023-01-03T00:31:42.857Z,5.75
2023-01-03T00:34:10.396Z,5.92
2023-01-03T00:36:37.824Z,5.90
2023-01-03T00:39:05.054Z,5.83
2023-01-03T00:41:32.160Z,5.83
2023-01-03T00:43:59.580Z,5.93
2023-01-03T00:46:26.600Z,5.70
2023-01-03T00:48:53.316Z,5.74
2023-01-03T00:51:22.565Z,5.71
2023-01-03T00:53:51.802Z,5.73
2023-01-03T00:56:22.974Z,5.77
2023-01-03T00:58:49.944Z,6.28
2023-01-03T01:01:18.753Z,6.29
2023-01-03T01:03:49.145Z,6.09
2023-01-03T01:06:21.866Z,6.00
2023-01-03T01:08:49.874Z,5.96
2023-01-03T01:11:17.745Z,5.89
2023-01-03T01:13:45.517Z,6.03
2023-01-03T01:16:24.812Z,5.95
2023-01-03T01:18:52.355Z,5.93
2023-01-03T01:21:21.972Z,6.14
2023-01-03T01:23:48.846Z,6.14
2023-01-03T01:26:18.177Z,6.03
2023-01-03T01:28:44.966Z,6.13
2023-01-03T01:31:15.395Z,6.10
2023-01-03T01:33:42.098Z,6.06
2023-01-03T01:36:31.102Z,6.16
2023-01-03T01:39:01.489Z,6.01
2023-01-03T01:41:30.949Z,6.11
2023-01-03T01:43:58.757Z,6.27
2023-01-03T01:46:28.721Z,6.23
2023-01-03T01:49:01.406Z,6.02
2023-01-03T01:51:31.788Z,6.02
2023-01-03T01:54:01.101Z,6.04
2023-01-03T01:56:48.303Z,6.03
2023-01-03T01:59:15.894Z,6.26
2023-01-03T02:01:45.505Z,6.20
2023-01-03T02:04:17.424Z,5.89
2023-01-03T02:06:44.336Z,5.92
2023-01-03T02:09:11.003Z,5.94
2023-01-03T02:11:57.177Z,5.70
2023-01-03T02:14:31.753Z,5.88
2023-01-03T02:17:49.415Z,5.89
2023-01-03T02:20:25.390Z,5.86
2023-01-03T02:22:57.947Z,5.92
2023-01-03T02:25:27.567Z,5.88
2023-01-03T02:28:23.470Z,5.87
2023-01-03T02:30:52.870Z,5.77
2023-01-03T02:33:39.018Z,5.94
2023-01-03T02:36:20.483Z,5.97
2023-01-03T02:39:05.301Z,5.97
2023-01-03T02:42:01.043Z,5.88
2023-01-03T02:44:36.253Z,5.96
2023-01-03T02:47:13.935Z,6.03
2023-01-03T02:49:52.031Z,5.82
2023-01-03T02:52:29.094Z,5.60
2023-01-03T02:55:05.303Z,5.62
2023-01-03T02:57:39.610Z,5.42
2023-01-03T03:00:10.933Z,5.59
2023-01-03T03:02:40.624Z,5.65
2023-01-03T03:05:13.825Z,5.56
2023-01-03T03:07:40.931Z,5.59
2023-01-03T03:10:09.879Z,5.57
2023-01-03T03:12:40.401Z,5.55
2023-01-03T03:15:09.424Z,5.61
2023-01-03T03:17:38.668Z,5.34
2023-01-03T03:20:15.677Z,5.27
2023-01-03T03:22:47.759Z,5.56
2023-01-03T03:25:33.987Z,5.61
2023-01-03T03:28:06.528Z,5.32
2023-01-03T03:30:38.640Z,5.25
2023-01-03T03:33:07.092Z,5.41
2023-01-03T03:35:59.716Z,5.34
2023-01-03T03:38:35.400Z,5.71
2023-01-03T03:41:42.101Z,5.51
2023-01-03T03:44:25.890Z,5.32
2023-01-03T03:47:07.098Z,5.87
2023-01-03T03:49:37.597Z,5.94
2023-01-03T03:52:08.184Z,6.04
2023-01-03T03:54:37.530Z,6.19
2023-01-03T03:57:12.156Z,5.77
2023-01-03T03:59:43.464Z,5.59
2023-01-03T04:02:13.333Z,5.33
2023-01-03T04:04:45.497Z,5.91
2023-01-03T04:07:12.315Z,6.25
2023-01-03T04:09:38.896Z,5.75
2023-01-03T04:12:05.610Z,6.35
2023-01-03T04:14:32.444Z,6.47
2023-01-03T04:16:59.081Z,5.66
2023-01-03T04:19:25.732Z,6.05
2023-01-03T04:21:52.368Z,6.11
2023-01-03T04:24:18.977Z,5.83
2023-01-03T04:26:45.871Z,5.65
2023-01-03T04:29:12.512Z,6.01
2023-01-03T04:31:39.224Z,5.60
2023-01-03T04:34:06.017Z,5.46
2023-01-03T04:36:32.677Z,5.61
2023-01-03T04:38:59.294Z,5.45
2023-01-03T04:41:25.888Z,5.63
2023-01-03T04:43:52.505Z,5.44
2023-01-03T04:46:19.341Z,5.60
2023-01-03T04:48:45.960Z,5.58
2023-01-03T04:51:13.360Z,5.55
2023-01-03T04:53:40.061Z,5.45
2023-01-03T04:56:06.996Z,5.97
2023-01-03T04:58:33.589Z,5.62
2023-01-03T05:01:05.447Z,5.59
2023-01-03T05:03:32.159Z,6.12
2023-01-03T05:06:06.480Z,5.35
2023-01-03T05:08:33.136Z,5.52
2023-01-03T05:10:59.713Z,6.24
2023-01-03T05:13:26.629Z,6.03
2023-01-03T05:15:53.239Z,6.39
2023-01-03T05:18:19.913Z,6.71
2023-01-03T05:20:46.516Z,6.06
2023-01-03T05:23:15.248Z,4.99
2023-01-03T05:25:41.865Z,5.23
2023-01-03T05:28:12.306Z,5.30
2023-01-03T05:30:44.166Z,4.65
2023-01-03T05:33:10.773Z,4.56
2023-01-03T05:35:37.353Z,4.87
2023-01-03T05:38:04.322Z,5.35
2023-01-03T05:40:33.867Z,5.56
2023-01-03T05:43:04.355Z,5.97
2023-01-03T05:45:31.069Z,5.77
2023-01-03T05:47:58.054Z,5.23
2023-01-03T05:50:25.351Z,5.02
2023-01-03T05:52:52.319Z,5.28
2023-01-03T05:55:18.940Z,5.39
2023-01-03T05:57:45.546Z,5.49
2023-01-03T06:00:12.887Z,4.87
2023-01-03T06:02:39.872Z,5.14
2023-01-03T06:05:07.936Z,4.44
2023-01-03T06:07:34.536Z,4.25
2023-01-03T06:10:01.123Z,4.63
2023-01-03T06:12:28.994Z,4.36
2023-01-03T06:14:55.850Z,4.65
2023-01-03T06:17:22.996Z,4.63
2023-01-03T06:19:49.671Z,4.72
2023-01-03T06:22:16.292Z,4.45
2023-01-03T06:24:42.905Z,4.51
2023-01-03T06:27:09.564Z,4.33
2023-01-03T06:29:36.155Z,4.43
2023-01-03T06:32:08.910Z,4.16
2023-01-03T06:34:37.245Z,4.13
2023-01-03T06:37:04.340Z,4.79
2023-01-03T06:39:31.016Z,4.96
2023-01-03T06:41:57.625Z,4.89
2023-01-03T06:44:24.206Z,4.97
2023-01-03T06:46:50.887Z,4.62
2023-01-03T06:49:18.281Z,4.71
2023-01-03T06:51:48.118Z,4.87
2023-01-03T06:54:21.624Z,5.29
2023-01-03T06:56:49.345Z,5.78
2023-01-03T06:59:16.233Z,5.06
2023-01-03T07:01:43.897Z,4.74
2023-01-03T07:04:10.943Z,4.61
2023-01-03T07:06:37.987Z,4.61
2023-01-03T07:09:04.716Z,5.45
2023-01-03T07:11:31.602Z,5.57
2023-01-03T07:13:58.983Z,5.22
2023-01-03T07:16:28.412Z,5.17
2023-01-03T07:18:55.915Z,4.88
2023-01-03T07:21:24.498Z,4.87
2023-01-03T07:23:53.486Z,5.44
2023-01-03T07:26:20.346Z,5.37
2023-01-03T07:28:47.073Z,5.00
2023-01-03T07:31:13.778Z,5.04
2023-01-03T07:33:40.457Z,5.19
2023-01-03T07:36:12.045Z,5.68
2023-01-03T07:38:41.055Z,5.88
2023-01-03T07:41:08.020Z,6.14
2023-01-03T07:43:35.915Z,5.60
2023-01-03T07:46:15.770Z,5.04
2023-01-03T07:48:43.860Z,4.86
2023-01-03T07:51:12.856Z,5.11
2023-01-03T07:53:40.221Z,5.04
2023-01-03T07:56:13.520Z,5.25
2023-01-03T07:58:42.405Z,5.17
2023-01-03T08:01:14.986Z,5.41
2023-01-03T08:03:42.598Z,5.28
2023-01-03T08:06:21.205Z,6.21
2023-01-03T08:08:48.127Z,5.95
2023-01-03T08:11:15.329Z,5.77
2023-01-03T08:13:42.459Z,5.48
2023-01-03T08:16:11.310Z,5.54
2023-01-03T08:18:39.584Z,5.80
2023-01-03T08:21:08.013Z,5.76
2023-01-03T08:23:34.882Z,5.88
2023-01-03T08:26:19.461Z,5.73
2023-01-03T08:28:46.061Z,5.70
2023-01-03T08:31:19.832Z,5.74
2023-01-03T08:33:54.961Z,5.61
2023-01-03T08:36:23.813Z,5.61
2023-01-03T08:38:57.982Z,5.69
2023-01-03T08:41:29.394Z,5.68
2023-01-03T08:43:59.359Z,5.80
2023-01-03T08:46:26.709Z,5.89
2023-01-03T08:48:54.738Z,5.85
2023-01-03T08:51:21.337Z,5.99
2023-01-03T08:53:47.994Z,5.94
2023-01-03T08:56:14.609Z,5.86
2023-01-03T08:58:41.258Z,5.92
2023-01-03T09:01:07.885Z,5.92
2023-01-03T09:03:34.708Z,5.96
2023-01-03T09:06:02.938Z,6.10
2023-01-03T09:08:36.131Z,6.20
2023-01-03T09:11:07.050Z,6.17
2023-01-03T09:13:33.730Z,6.02
2023-01-03T09:16:11.103Z,6.09
2023-01-03T09:18:38.865Z,5.96
2023-01-03T09:21:05.976Z,6.07
2023-01-03T09:23:34.029Z,6.16
2023-01-03T09:26:01.123Z,6.08
2023-01-03T09:28:27.984Z,6.08
2023-01-03T09:30:54.771Z,6.08
2023-01-03T09:33:21.476Z,6.11
2023-01-03T09:35:48.099Z,6.20
2023-01-03T09:38:14.764Z,6.24
2023-01-03T09:40:44.647Z,6.25
2023-01-03T09:43:25.253Z,6.22
2023-01-03T09:45:55.792Z,6.38
2023-01-03T09:48:30.016Z,6.43
2023-01-03T09:51:18.511Z,6.47
2023-01-03T09:53:43.282Z,6.56
2023-01-03T09:56:12.594Z,6.75
2023-01-03T09:58:40.901Z,6.72
2023-01-03T10:01:28.351Z,6.85
2023-01-03T10:04:04.205Z,6.86
2023-01-03T10:06:58.960Z,7.06
2023-01-03T10:09:59.642Z,7.04
2023-01-03T10:12:46.857Z,7.17
2023-01-03T10:15:15.724Z,7.08
2023-01-03T10:18:02.399Z,7.14
2023-01-03T10:20:47.175Z,7.13
2023-01-03T10:23:14.083Z,7.29
2023-01-03T10:25:44.361Z,7.49
2023-01-03T10:28:24.574Z,8.02
2023-01-03T10:31:15.887Z,7.87
2023-01-03T10:33:48.667Z,7.86
2023-01-03T10:36:17.047Z,7.53
2023-01-03T10:38:52.011Z,7.43
2023-01-03T10:41:39.917Z,7.52
2023-01-03T10:44:06.626Z,7.61
2023-01-03T10:46:33.312Z,7.58
2023-01-03T10:49:27.480Z,7.57
2023-01-03T10:52:03.009Z,7.57
2023-01-03T10:54:41.085Z,8.18
2023-01-03T10:57:07.858Z,8.27
2023-01-03T10:59:34.646Z,8.29
2023-01-03T11:02:10.402Z,8.17
2023-01-03T11:04:37.156Z,8.22
2023-01-03T11:07:14.562Z,8.08
2023-01-03T11:09:51.146Z,8.02
2023-01-03T11:12:18.895Z,8.16
2023-01-03T11:14:52.954Z,8.22
2023-01-03T11:17:20.906Z,8.53
2023-01-03T11:19:47.688Z,8.68
2023-01-03T11:22:44.983Z,8.84
2023-01-03T11:25:39.385Z,8.88
2023-01-03T11:35:11.622Z,8.85
2023-01-03T11:37:35.100Z,8.77
2023-01-03T11:40:28.747Z,8.99
2023-01-03T11:43:15.131Z,9.11
2023-01-03T11:46:26.881Z,9.23
2023-01-03T11:49:08.406Z,9.45
2023-01-03T11:51:57.648Z,9.21
2023-01-03T11:54:56.809Z,8.96
2023-01-03T11:57:28.502Z,8.88
2023-01-03T12:00:05.955Z,8.74
2023-01-03T12:02:51.194Z,8.53
2023-01-03T12:05:45.599Z,8.52
2023-01-03T12:08:12.137Z,8.53
2023-01-03T12:11:06.476Z,8.68
2023-01-03T12:13:42.165Z,8.45
2023-01-03T12:16:16.816Z,8.55
2023-01-03T12:18:58.682Z,8.27
2023-01-03T12:21:37.059Z,8.28
2023-01-03T12:24:12.849Z,8.54
2023-01-03T12:26:42.830Z,8.42
2023-01-03T12:29:23.273Z,8.34
2023-01-03T12:32:16.993Z,8.51
2023-01-03T12:34:49.771Z,8.62
2023-01-03T12:37:21.955Z,8.79
2023-01-03T12:39:59.841Z,8.81
2023-01-03T12:42:29.199Z,8.96
2023-01-03T12:45:05.393Z,8.77
2023-01-03T12:47:40.234Z,8.71
2023-01-03T12:50:12.658Z,8.56
2023-01-03T12:52:41.556Z,8.31
2023-01-03T12:55:18.601Z,8.32
2023-01-03T12:58:17.516Z,8.33
2023-01-03T13:01:14.810Z,8.33
2023-01-03T13:03:44.527Z,8.27
2023-01-03T13:06:23.414Z,8.43
2023-01-03T13:08:59.555Z,8.60
2023-01-03T13:11:28.582Z,8.62
2023-01-03T13:13:58.354Z,8.54
2023-01-03T13:16:42.988Z,8.68
2023-01-03T13:19:35.965Z,8.59
2023-01-03T13:22:37.511Z,8.50
2023-01-03T13:25:39.354Z,8.41
2023-01-03T13:28:18.231Z,8.09
2023-01-03T13:30:44.936Z,7.83
2023-01-03T13:33:11.520Z,7.92
2023-01-03T13:35:44.034Z,7.91
2023-01-03T13:38:24.052Z,8.07
2023-01-03T13:43:48.853Z,8.14
2023-01-03T13:46:28.847Z,8.01
2023-01-03T13:48:58.319Z,7.78
2023-01-03T13:51:33.417Z,8.16
2023-01-03T13:54:03.630Z,8.47
2023-01-03T13:56:42.649Z,8.22
2023-01-03T13:59:19.016Z,8.02
2023-01-03T14:02:23.528Z,7.56
2023-01-03T14:05:05.472Z,7.53
2023-01-03T14:07:53.691Z,7.64
2023-01-03T14:10:53.742Z,7.65
2023-01-03T14:13:36.137Z,7.36
2023-01-03T14:16:26.217Z,7.52
2023-01-03T14:19:23.577Z,7.36
2023-01-03T14:22:28.809Z,7.62
2023-01-03T14:24:57.960Z,7.22
2023-01-03T14:27:29.681Z,7.23
2023-01-03T14:29:56.627Z,6.95
2023-01-03T14:32:32.008Z,6.97
2023-01-03T14:35:01.027Z,6.99
2023-01-03T14:37:27.740Z,7.26
2023-01-03T14:39:56.332Z,7.17
2023-01-03T14:42:23.635Z,7.12
2023-01-03T14:45:02.070Z,6.75
2023-01-03T14:47:38.394Z,6.84
2023-01-03T14:50:07.423Z,6.86
2023-01-03T14:52:37.869Z,6.85
2023-01-03T14:55:11.308Z,6.97
2023-01-03T14:57:39.378Z,7.03
2023-01-03T15:00:11.098Z,6.91
2023-01-03T15:02:39.435Z,6.92
2023-01-03T15:05:28.454Z,6.92
2023-01-03T15:08:18.059Z,6.91
2023-01-03T15:11:06.218Z,6.65
2023-01-03T15:14:00.817Z,6.74
2023-01-03T15:16:40.124Z,6.68
2023-01-03T15:19:20.657Z,6.55
2023-01-03T15:21:47.591Z,6.50
2023-01-03T15:24:17.550Z,6.76
2023-01-03T15:26:52.064Z,6.64
2023-01-03T15:29:21.907Z,6.68
2023-01-03T15:32:11.262Z,6.59
2023-01-03T15:34:45.324Z,6.56
2023-01-03T15:37:13.501Z,6.41
2023-01-03T15:39:43.521Z,6.34
2023-01-03T15:42:43.555Z,6.42
2023-01-03T15:45:27.263Z,6.40
2023-01-03T15:47:57.627Z,6.40
2023-01-03T15:50:33.857Z,6.48
2023-01-03T15:53:00.487Z,6.42
2023-01-03T15:55:27.138Z,6.47
2023-01-03T15:57:53.814Z,6.55
2023-01-03T16:00:23.281Z,6.42
2023-01-03T16:02:50.377Z,6.52
2023-01-03T16:05:22.064Z,6.57
2023-01-03T16:07:49.427Z,6.40
2023-01-03T16:10:16.053Z,6.46
2023-01-03T16:12:43.232Z,6.47
2023-01-03T16:15:21.407Z,6.54
2023-01-03T16:17:49.761Z,6.46
2023-01-03T16:20:18.653Z,6.65
2023-01-03T16:22:59.587Z,6.55
2023-01-03T16:25:27.506Z,6.55
2023-01-03T16:27:54.289Z,6.66
2023-01-03T16:30:20.916Z,6.67
2023-01-03T16:32:47.576Z,6.73
2023-01-03T16:35:19.468Z,6.84
2023-01-03T16:37:46.894Z,6.80
2023-01-03T16:40:18.313Z,6.89
2023-01-03T16:42:45.041Z,6.79
2023-01-03T16:45:12.436Z,6.71
2023-01-03T16:47:39.555Z,6.62
2023-01-03T16:50:15.484Z,6.56
2023-01-03T16:52:46.788Z,6.57
2023-01-03T16:55:22.948Z,6.56
2023-01-03T16:57:54.232Z,6.42
2023-01-03T17:00:27.376Z,6.47
2023-01-03T17:02:54.248Z,6.52
2023-01-03T17:05:21.560Z,6.63
2023-01-03T17:07:51.596Z,6.63
2023-01-03T17:10:24.298Z,6.74
2023-01-03T17:12:50.913Z,6.86
2023-01-03T17:15:17.576Z,6.96
2023-01-03T17:17:44.251Z,7.05
2023-01-03T17:20:15.555Z,6.98
2023-01-03T17:22:51.043Z,7.03
2023-01-03T17:25:17.786Z,7.06
2023-01-03T17:27:55.381Z,7.07
2023-01-03T17:30:25.366Z,7.16
2023-01-03T17:32:52.118Z,7.10
2023-01-03T17:35:18.958Z,7.22
2023-01-03T17:38:23.190Z,7.19
2023-01-03T17:40:34.173Z,7.05
2023-01-03T17:43:02.343Z,7.00
2023-01-03T17:45:29.119Z,7.04
2023-01-03T17:47:55.800Z,6.98
2023-01-03T17:50:22.703Z,7.12
2023-01-03T17:52:55.441Z,7.02
2023-01-03T17:55:29.106Z,7.03
2023-01-03T17:57:57.371Z,7.05
2023-01-03T18:00:27.004Z,7.04
2023-01-03T18:02:54.693Z,7.22
2023-01-03T18:05:27.522Z,7.31
2023-01-03T18:08:00.343Z,7.21
2023-01-03T18:10:46.130Z,7.60
2023-01-03T18:13:26.508Z,7.25
2023-01-03T18:15:54.723Z,7.04
2023-01-03T18:18:23.958Z,7.09
2023-01-03T18:20:50.880Z,7.05
2023-01-03T18:23:30.055Z,7.12
2023-01-03T18:26:02.582Z,7.04
2023-01-03T18:28:29.388Z,6.99
2023-01-03T18:30:56.760Z,7.16
2023-01-03T18:33:23.718Z,7.21
2023-01-03T18:35:50.665Z,7.05
2023-01-03T18:38:30.822Z,7.41
2023-01-03T18:41:04.514Z,7.07
2023-01-03T18:43:32.946Z,7.16
2023-01-03T18:45:59.612Z,6.94
2023-01-03T18:48:26.243Z,6.82
2023-01-03T18:50:58.968Z,6.50
2023-01-03T18:53:29.475Z,6.57
2023-01-03T18:55:56.198Z,6.64
2023-01-03T18:58:39.899Z,6.83
2023-01-03T19:01:07.142Z,6.80
2023-01-03T19:03:35.110Z,6.61
2023-01-03T19:06:06.010Z,6.39
2023-01-03T19:08:33.222Z,6.35
2023-01-03T19:11:06.397Z,6.42
2023-01-03T19:13:34.911Z,6.48
2023-01-03T19:16:01.572Z,6.54
2023-01-03T19:18:28.333Z,6.54
2023-01-03T19:20:55.066Z,6.73
2023-01-03T19:23:26.883Z,6.60
2023-01-03T19:25:54.954Z,6.53
2023-01-03T19:28:25.596Z,6.57
2023-01-03T19:30:52.632Z,6.52
2023-01-03T19:33:19.522Z,6.72
2023-01-03T19:35:46.381Z,6.70
2023-01-03T19:38:12.987Z,6.55
2023-01-03T19:40:40.863Z,6.69
2023-01-03T19:43:10.695Z,7.34
2023-01-03T19:45:41.076Z,6.82
2023-01-03T19:48:24.742Z,6.30
2023-01-03T19:50:52.134Z,6.14
2023-01-03T19:53:18.929Z,6.24
2023-01-03T19:55:50.510Z,6.33
2023-01-03T19:58:25.385Z,6.22
2023-01-03T20:00:53.057Z,6.22
2023-01-03T20:03:36.007Z,6.31
2023-01-03T20:06:02.918Z,6.19
2023-01-03T20:08:29.513Z,6.48
2023-01-03T20:10:56.857Z,6.51
2023-01-03T20:13:26.404Z,6.72
2023-01-03T20:15:54.976Z,6.58
2023-01-03T20:18:27.611Z,6.32
2023-01-03T20:21:09.529Z,6.33
2023-01-03T20:23:40.078Z,6.39
2023-01-03T20:26:13.849Z,6.64
2023-01-03T20:28:41.031Z,6.66
2023-01-03T20:31:08.502Z,6.72
2023-01-03T20:33:35.559Z,6.80
2023-01-03T20:36:14.131Z,6.80
2023-01-03T20:38:44.854Z,6.82
2023-01-03T20:41:13.226Z,6.87
2023-01-03T20:43:40.155Z,6.75
2023-01-03T20:46:14.885Z,6.58
2023-01-03T20:48:41.642Z,6.56
2023-01-03T20:51:11.484Z,6.63
2023-01-03T20:53:42.695Z,6.71
2023-01-03T20:56:13.937Z,6.78
2023-01-03T20:58:41.132Z,7.03
2023-01-03T21:01:08.825Z,6.92
2023-01-03T21:03:37.293Z,7.00
2023-01-03T21:06:17.288Z,6.89
2023-01-03T21:08:43.947Z,6.93
2023-01-03T21:11:10.570Z,6.73
2023-01-03T21:13:37.163Z,6.52
2023-01-03T21:16:20.232Z,6.67
2023-01-03T21:18:46.894Z,6.85
2023-01-03T21:21:18.986Z,6.80
2023-01-03T21:23:46.398Z,6.69
2023-01-03T21:26:13.350Z,6.80
2023-01-03T21:28:40.049Z,6.82
2023-01-03T21:31:06.974Z,6.74
2023-01-03T21:33:33.683Z,6.86
2023-01-03T21:36:00.257Z,6.87
2023-01-03T21:38:26.879Z,6.93
2023-01-03T21:40:53.520Z,6.75
2023-01-03T21:43:20.099Z,6.71
2023-01-03T21:45:48.761Z,6.68
2023-01-03T21:48:17.865Z,6.65
2023-01-03T21:50:46.803Z,6.60
2023-01-03T21:53:21.599Z,6.54
2023-01-03T21:55:49.041Z,6.25
2023-01-03T21:58:17.540Z,6.06
2023-01-03T22:00:44.738Z,6.33
2023-01-03T22:03:15.962Z,6.87
2023-01-03T22:05:42.869Z,7.24
2023-01-03T22:08:09.456Z,6.92
2023-01-03T22:10:36.062Z,7.18
2023-01-03T22:13:05.917Z,7.03
2023-01-03T22:15:35.902Z,6.85
2023-01-03T22:18:02.949Z,7.20
2023-01-03T22:20:33.517Z,6.72
2023-01-03T22:23:04.734Z,6.86
2023-01-03T22:25:31.331Z,6.67
2023-01-03T22:27:57.915Z,6.51
2023-01-03T22:30:24.874Z,6.90
2023-01-03T22:32:51.505Z,6.86
2023-01-03T22:35:18.395Z,6.22
2023-01-03T22:37:45.164Z,6.12
2023-01-03T22:40:14.122Z,6.25
2023-01-03T22:42:41.049Z,6.02
2023-01-03T22:45:08.730Z,6.44
2023-01-03T22:47:38.386Z,6.28
2023-01-03T22:50:07.243Z,6.12
2023-01-03T22:52:34.704Z,6.17
2023-01-03T22:55:01.339Z,6.39
2023-01-03T22:57:28.194Z,5.99
2023-01-03T22:59:54.857Z,6.23
2023-01-03T23:02:26.297Z,6.34
2023-01-03T23:04:55.348Z,6.37
2023-01-03T23:07:22.072Z,6.26
2023-01-03T23:09:48.680Z,6.22
2023-01-03T23:12:15.326Z,5.60
2023-01-03T23:14:41.911Z,5.91
2023-01-03T23:17:08.789Z,5.56
2023-01-03T23:19:35.451Z,5.63
2023-01-03T23:22:02.092Z,5.63
2023-01-03T23:24:28.741Z,5.40
2023-01-03T23:26:55.421Z,5.48
2023-01-03T23:29:22.129Z,5.69
2023-01-03T23:31:48.750Z,5.32
2023-01-03T23:34:15.343Z,5.66
2023-01-03T23:36:41.951Z,5.48
2023-01-03T23:39:12.198Z,5.56
2023-01-03T23:41:38.778Z,5.39
2023-01-03T23:44:05.460Z,5.37
2023-01-03T23:46:32.233Z,5.35
2023-01-03T23:48:59.067Z,5.25
2023-01-03T23:51:26.232Z,5.35
2023-01-03T23:53:53.940Z,5.41
2023-01-03T23:56:23.023Z,5.39
2023-01-03T23:58:50.048Z,5.41
